sensor_id;sensor_type;location;lat;lon;timestamp;temperature;humidity
8858;DHT22;4465;50.904;4.696;2023-05-10T00:01:05;12.90;99.90
8858;DHT22;4465;50.904;4.696;2023-05-10T00:03:31;12.90;99.90
8858;DHT22;4465;50.904;4.696;2023-05-10T00:05:56;12.90;99.90
8858;DHT22;4465;50.904;4.696;2023-05-10T00:08:23;12.90;99.90
8858;DHT22;4465;50.904;4.696;2023-05-10T00:10:49;12.90;99.90
8858;DHT22;4465;50.904;4.696;2023-05-10T00:13:15;12.90;99.90
8858;DHT22;4465;50.904;4.696;2023-05-10T00:15:41;12.90;99.90
8858;DHT22;4465;50.904;4.696;2023-05-10T00:18:07;12.90;99.90
8858;DHT22;4465;50.904;4.696;2023-05-10T00:20:33;12.90;99.90
8858;DHT22;4465;50.904;4.696;2023-05-10T00:23:01;12.90;99.90
8858;DHT22;4465;50.904;4.696;2023-05-10T00:25:29;12.80;99.90
8858;DHT22;4465;50.904;4.696;2023-05-10T00:28:00;12.90;99.90
8858;DHT22;4465;50.904;4.696;2023-05-10T00:30:26;12.80;99.90
8858;DHT22;4465;50.904;4.696;2023-05-10T00:32:54;12.80;99.90
8858;DHT22;4465;50.904;4.696;2023-05-10T00:35:20;12.80;99.90
8858;DHT22;4465;50.904;4.696;2023-05-10T00:37:47;12.80;99.90
8858;DHT22;4465;50.904;4.696;2023-05-10T00:40:13;12.80;99.90
8858;DHT22;4465;50.904;4.696;2023-05-10T00:42:39;12.90;99.90
8858;DHT22;4465;50.904;4.696;2023-05-10T00:45:06;12.80;99.90
8858;DHT22;4465;50.904;4.696;2023-05-10T00:47:32;12.80;99.90
8858;DHT22;4465;50.904;4.696;2023-05-10T00:49:59;12.80;99.90
8858;DHT22;4465;50.904;4.696;2023-05-10T00:52:26;12.80;99.90
8858;DHT22;4465;50.904;4.696;2023-05-10T00:54:53;12.80;99.90
8858;DHT22;4465;50.904;4.696;2023-05-10T00:57:20;12.80;99.90
8858;DHT22;4465;50.904;4.696;2023-05-10T00:59:46;12.80;99.90
8858;DHT22;4465;50.904;4.696;2023-05-10T01:02:15;12.80;99.90
8858;DHT22;4465;50.904;4.696;2023-05-10T01:04:41;12.80;99.90
8858;DHT22;4465;50.904;4.696;2023-05-10T01:07:07;12.80;99.90
8858;DHT22;4465;50.904;4.696;2023-05-10T01:09:35;12.80;99.90
8858;DHT22;4465;50.904;4.696;2023-05-10T01:12:01;12.80;99.90
8858;DHT22;4465;50.904;4.696;2023-05-10T01:14:28;12.70;99.90
8858;DHT22;4465;50.904;4.696;2023-05-10T01:16:55;12.70;99.90
8858;DHT22;4465;50.904;4.696;2023-05-10T01:19:27;12.70;99.90
8858;DHT22;4465;50.904;4.696;2023-05-10T01:24:47;12.70;99.90
8858;DHT22;4465;50.904;4.696;2023-05-10T01:41:14;12.70;99.90
8858;DHT22;4465;50.904;4.696;2023-05-10T01:44:00;12.70;99.90
8858;DHT22;4465;50.904;4.696;2023-05-10T01:46:37;12.70;99.90
8858;DHT22;4465;50.904;4.696;2023-05-10T01:49:13;12.70;99.90
8858;DHT22;4465;50.904;4.696;2023-05-10T01:51:50;12.70;99.90
8858;DHT22;4465;50.904;4.696;2023-05-10T01:54:19;12.70;99.90
8858;DHT22;4465;50.904;4.696;2023-05-10T01:56:50;12.70;99.90
8858;DHT22;4465;50.904;4.696;2023-05-10T01:59:21;12.70;99.90
8858;DHT22;4465;50.904;4.696;2023-05-10T02:01:48;12.70;99.90
8858;DHT22;4465;50.904;4.696;2023-05-10T02:04:17;12.70;99.90
8858;DHT22;4465;50.904;4.696;2023-05-10T02:06:46;12.70;99.90
8858;DHT22;4465;50.904;4.696;2023-05-10T02:09:14;12.70;99.90
8858;DHT22;4465;50.904;4.696;2023-05-10T02:11:43;12.70;99.90
8858;DHT22;4465;50.904;4.696;2023-05-10T02:14:11;12.80;99.90
8858;DHT22;4465;50.904;4.696;2023-05-10T02:16:38;12.70;99.90
8858;DHT22;4465;50.904;4.696;2023-05-10T02:19:05;12.70;99.90
8858;DHT22;4465;50.904;4.696;2023-05-10T02:21:34;12.70;99.90
8858;DHT22;4465;50.904;4.696;2023-05-10T02:24:03;12.80;99.90
8858;DHT22;4465;50.904;4.696;2023-05-10T02:26:34;12.70;99.90
8858;DHT22;4465;50.904;4.696;2023-05-10T02:29:02;12.70;99.90
8858;DHT22;4465;50.904;4.696;2023-05-10T02:31:32;12.70;99.90
8858;DHT22;4465;50.904;4.696;2023-05-10T02:33:59;12.70;99.90
8858;DHT22;4465;50.904;4.696;2023-05-10T02:36:27;12.70;99.90
8858;DHT22;4465;50.904;4.696;2023-05-10T02:39:00;12.70;99.90
8858;DHT22;4465;50.904;4.696;2023-05-10T02:41:28;12.70;99.90
8858;DHT22;4465;50.904;4.696;2023-05-10T02:43:59;12.70;99.90
8858;DHT22;4465;50.904;4.696;2023-05-10T02:46:25;12.70;99.90
8858;DHT22;4465;50.904;4.696;2023-05-10T02:48:51;12.70;99.90
8858;DHT22;4465;50.904;4.696;2023-05-10T02:51:18;12.70;99.90
8858;DHT22;4465;50.904;4.696;2023-05-10T02:53:50;12.80;99.90
8858;DHT22;4465;50.904;4.696;2023-05-10T02:56:33;12.70;99.90
8858;DHT22;4465;50.904;4.696;2023-05-10T02:59:00;12.80;99.90
8858;DHT22;4465;50.904;4.696;2023-05-10T03:01:26;12.70;99.90
8858;DHT22;4465;50.904;4.696;2023-05-10T03:03:54;12.80;99.90
8858;DHT22;4465;50.904;4.696;2023-05-10T03:06:21;12.80;99.90
8858;DHT22;4465;50.904;4.696;2023-05-10T03:08:49;12.80;99.90
8858;DHT22;4465;50.904;4.696;2023-05-10T03:16:47;12.80;99.90
8858;DHT22;4465;50.904;4.696;2023-05-10T03:19:30;12.80;99.90
8858;DHT22;4465;50.904;4.696;2023-05-10T03:22:02;12.80;99.90
8858;DHT22;4465;50.904;4.696;2023-05-10T03:24:30;12.80;99.90
8858;DHT22;4465;50.904;4.696;2023-05-10T03:26:59;12.80;99.90
8858;DHT22;4465;50.904;4.696;2023-05-10T03:29:29;12.80;99.90
8858;DHT22;4465;50.904;4.696;2023-05-10T03:31:59;12.80;99.90
8858;DHT22;4465;50.904;4.696;2023-05-10T03:34:26;12.80;99.90
8858;DHT22;4465;50.904;4.696;2023-05-10T03:36:52;12.80;99.90
8858;DHT22;4465;50.904;4.696;2023-05-10T03:39:18;12.80;99.90
8858;DHT22;4465;50.904;4.696;2023-05-10T03:41:44;12.80;99.90
8858;DHT22;4465;50.904;4.696;2023-05-10T03:44:10;12.80;99.90
8858;DHT22;4465;50.904;4.696;2023-05-10T03:46:36;12.80;99.90
8858;DHT22;4465;50.904;4.696;2023-05-10T03:49:04;12.80;99.90
8858;DHT22;4465;50.904;4.696;2023-05-10T03:51:29;12.70;99.90
8858;DHT22;4465;50.904;4.696;2023-05-10T03:53:56;12.70;99.90
8858;DHT22;4465;50.904;4.696;2023-05-10T03:56:22;12.70;99.90
8858;DHT22;4465;50.904;4.696;2023-05-10T03:58:48;12.70;99.90
8858;DHT22;4465;50.904;4.696;2023-05-10T04:01:14;12.60;99.90
8858;DHT22;4465;50.904;4.696;2023-05-10T04:03:40;12.60;99.90
8858;DHT22;4465;50.904;4.696;2023-05-10T04:06:10;12.60;99.90
8858;DHT22;4465;50.904;4.696;2023-05-10T04:08:37;12.60;99.90
8858;DHT22;4465;50.904;4.696;2023-05-10T04:11:08;12.60;99.90
8858;DHT22;4465;50.904;4.696;2023-05-10T04:13:34;12.50;99.90
8858;DHT22;4465;50.904;4.696;2023-05-10T04:16:00;12.50;99.90
8858;DHT22;4465;50.904;4.696;2023-05-10T04:18:26;12.50;99.90
8858;DHT22;4465;50.904;4.696;2023-05-10T04:20:54;12.50;99.90
8858;DHT22;4465;50.904;4.696;2023-05-10T04:23:22;12.50;99.90
8858;DHT22;4465;50.904;4.696;2023-05-10T04:25:51;12.40;99.90
8858;DHT22;4465;50.904;4.696;2023-05-10T04:28:16;12.40;99.90
8858;DHT22;4465;50.904;4.696;2023-05-10T04:30:42;12.40;99.90
8858;DHT22;4465;50.904;4.696;2023-05-10T04:33:08;12.40;99.90
8858;DHT22;4465;50.904;4.696;2023-05-10T04:35:34;12.30;99.90
8858;DHT22;4465;50.904;4.696;2023-05-10T04:38:00;12.30;99.90
8858;DHT22;4465;50.904;4.696;2023-05-10T04:40:26;12.30;99.90
8858;DHT22;4465;50.904;4.696;2023-05-10T04:42:57;12.30;99.90
8858;DHT22;4465;50.904;4.696;2023-05-10T04:45:28;12.30;99.90
8858;DHT22;4465;50.904;4.696;2023-05-10T04:47:56;12.30;99.90
8858;DHT22;4465;50.904;4.696;2023-05-10T04:50:24;12.20;99.90
8858;DHT22;4465;50.904;4.696;2023-05-10T04:52:55;12.20;99.90
8858;DHT22;4465;50.904;4.696;2023-05-10T04:55:21;12.20;99.90
8858;DHT22;4465;50.904;4.696;2023-05-10T04:57:47;12.20;99.90
8858;DHT22;4465;50.904;4.696;2023-05-10T05:00:13;12.20;99.90
8858;DHT22;4465;50.904;4.696;2023-05-10T05:02:42;12.20;99.90
8858;DHT22;4465;50.904;4.696;2023-05-10T05:05:10;12.20;99.90
8858;DHT22;4465;50.904;4.696;2023-05-10T05:07:35;12.20;99.90
8858;DHT22;4465;50.904;4.696;2023-05-10T05:10:01;12.20;99.90
8858;DHT22;4465;50.904;4.696;2023-05-10T05:12:30;12.20;99.90
8858;DHT22;4465;50.904;4.696;2023-05-10T05:14:58;12.20;99.90
8858;DHT22;4465;50.904;4.696;2023-05-10T05:17:24;12.20;99.90
8858;DHT22;4465;50.904;4.696;2023-05-10T05:19:50;12.20;99.90
8858;DHT22;4465;50.904;4.696;2023-05-10T05:22:17;12.20;99.90
8858;DHT22;4465;50.904;4.696;2023-05-10T05:24:42;12.20;99.90
8858;DHT22;4465;50.904;4.696;2023-05-10T05:27:11;12.20;99.90
8858;DHT22;4465;50.904;4.696;2023-05-10T05:29:37;12.20;99.90
8858;DHT22;4465;50.904;4.696;2023-05-10T05:32:05;12.20;99.90
8858;DHT22;4465;50.904;4.696;2023-05-10T05:34:31;12.20;99.90
8858;DHT22;4465;50.904;4.696;2023-05-10T05:36:57;12.20;99.90
8858;DHT22;4465;50.904;4.696;2023-05-10T05:39:23;12.20;99.90
8858;DHT22;4465;50.904;4.696;2023-05-10T05:41:49;12.20;99.90
8858;DHT22;4465;50.904;4.696;2023-05-10T05:44:17;12.20;99.90
8858;DHT22;4465;50.904;4.696;2023-05-10T05:46:43;12.30;99.90
8858;DHT22;4465;50.904;4.696;2023-05-10T05:49:09;12.20;99.90
8858;DHT22;4465;50.904;4.696;2023-05-10T05:51:35;12.20;99.90
8858;DHT22;4465;50.904;4.696;2023-05-10T05:54:04;12.20;99.90
8858;DHT22;4465;50.904;4.696;2023-05-10T05:56:32;12.30;99.90
8858;DHT22;4465;50.904;4.696;2023-05-10T05:59:01;12.30;99.90
8858;DHT22;4465;50.904;4.696;2023-05-10T06:01:29;12.30;99.90
8858;DHT22;4465;50.904;4.696;2023-05-10T06:03:55;12.30;99.90
8858;DHT22;4465;50.904;4.696;2023-05-10T06:06:23;12.30;99.90
8858;DHT22;4465;50.904;4.696;2023-05-10T06:08:49;12.30;99.90
8858;DHT22;4465;50.904;4.696;2023-05-10T06:11:15;12.40;99.90
8858;DHT22;4465;50.904;4.696;2023-05-10T06:13:40;12.40;99.90
8858;DHT22;4465;50.904;4.696;2023-05-10T06:16:07;12.40;99.90
8858;DHT22;4465;50.904;4.696;2023-05-10T06:18:33;12.50;99.90
8858;DHT22;4465;50.904;4.696;2023-05-10T06:21:02;12.50;99.90
8858;DHT22;4465;50.904;4.696;2023-05-10T06:23:28;12.50;99.90
8858;DHT22;4465;50.904;4.696;2023-05-10T06:25:54;12.50;99.90
8858;DHT22;4465;50.904;4.696;2023-05-10T06:28:20;12.50;99.90
8858;DHT22;4465;50.904;4.696;2023-05-10T06:30:46;12.50;99.90
8858;DHT22;4465;50.904;4.696;2023-05-10T06:33:15;12.50;99.90
8858;DHT22;4465;50.904;4.696;2023-05-10T06:35:43;12.50;99.90
8858;DHT22;4465;50.904;4.696;2023-05-10T06:38:12;12.50;99.90
8858;DHT22;4465;50.904;4.696;2023-05-10T06:40:43;12.60;99.90
8858;DHT22;4465;50.904;4.696;2023-05-10T06:43:12;12.60;99.90
8858;DHT22;4465;50.904;4.696;2023-05-10T06:45:37;12.60;99.90
8858;DHT22;4465;50.904;4.696;2023-05-10T06:48:03;12.60;99.90
8858;DHT22;4465;50.904;4.696;2023-05-10T06:50:34;12.60;99.90
8858;DHT22;4465;50.904;4.696;2023-05-10T06:53:01;12.60;99.90
8858;DHT22;4465;50.904;4.696;2023-05-10T06:55:29;12.60;99.90
8858;DHT22;4465;50.904;4.696;2023-05-10T06:57:55;12.70;99.90
8858;DHT22;4465;50.904;4.696;2023-05-10T07:00:23;12.70;99.90
8858;DHT22;4465;50.904;4.696;2023-05-10T07:02:49;12.70;99.90
8858;DHT22;4465;50.904;4.696;2023-05-10T07:05:15;12.80;99.90
8858;DHT22;4465;50.904;4.696;2023-05-10T07:07:43;12.80;99.90
8858;DHT22;4465;50.904;4.696;2023-05-10T07:10:12;12.80;99.90
8858;DHT22;4465;50.904;4.696;2023-05-10T07:12:37;12.90;99.90
8858;DHT22;4465;50.904;4.696;2023-05-10T07:15:06;12.90;99.90
8858;DHT22;4465;50.904;4.696;2023-05-10T07:17:32;12.90;99.90
8858;DHT22;4465;50.904;4.696;2023-05-10T07:19:59;12.90;99.90
8858;DHT22;4465;50.904;4.696;2023-05-10T07:22:28;13.00;99.90
8858;DHT22;4465;50.904;4.696;2023-05-10T07:24:59;12.90;99.90
8858;DHT22;4465;50.904;4.696;2023-05-10T07:27:25;12.90;99.90
8858;DHT22;4465;50.904;4.696;2023-05-10T07:29:53;12.80;99.90
8858;DHT22;4465;50.904;4.696;2023-05-10T07:32:20;12.70;99.90
8858;DHT22;4465;50.904;4.696;2023-05-10T07:34:46;12.70;99.90
8858;DHT22;4465;50.904;4.696;2023-05-10T07:37:15;12.70;99.90
8858;DHT22;4465;50.904;4.696;2023-05-10T07:39:40;12.60;99.90
8858;DHT22;4465;50.904;4.696;2023-05-10T07:42:06;12.60;99.90
8858;DHT22;4465;50.904;4.696;2023-05-10T07:44:35;12.60;99.90
8858;DHT22;4465;50.904;4.696;2023-05-10T07:47:00;12.60;99.90
8858;DHT22;4465;50.904;4.696;2023-05-10T07:49:26;12.50;99.90
8858;DHT22;4465;50.904;4.696;2023-05-10T07:51:52;12.50;99.90
8858;DHT22;4465;50.904;4.696;2023-05-10T07:54:18;12.50;99.90
8858;DHT22;4465;50.904;4.696;2023-05-10T07:56:44;12.50;99.90
8858;DHT22;4465;50.904;4.696;2023-05-10T07:59:16;12.40;99.90
8858;DHT22;4465;50.904;4.696;2023-05-10T08:01:45;12.40;99.90
8858;DHT22;4465;50.904;4.696;2023-05-10T08:04:11;12.30;99.90
8858;DHT22;4465;50.904;4.696;2023-05-10T08:06:37;12.30;99.90
8858;DHT22;4465;50.904;4.696;2023-05-10T08:09:03;12.30;99.90
8858;DHT22;4465;50.904;4.696;2023-05-10T08:11:31;12.20;99.90
8858;DHT22;4465;50.904;4.696;2023-05-10T08:13:57;12.30;99.90
8858;DHT22;4465;50.904;4.696;2023-05-10T08:16:23;12.20;99.90
8858;DHT22;4465;50.904;4.696;2023-05-10T08:18:54;12.20;99.90
8858;DHT22;4465;50.904;4.696;2023-05-10T08:21:20;12.10;99.90
8858;DHT22;4465;50.904;4.696;2023-05-10T08:23:49;12.20;99.90
8858;DHT22;4465;50.904;4.696;2023-05-10T08:26:17;12.20;99.90
8858;DHT22;4465;50.904;4.696;2023-05-10T08:28:43;12.20;99.90
8858;DHT22;4465;50.904;4.696;2023-05-10T08:31:14;12.10;99.90
8858;DHT22;4465;50.904;4.696;2023-05-10T08:33:43;12.10;99.90
8858;DHT22;4465;50.904;4.696;2023-05-10T08:36:09;12.10;99.90
8858;DHT22;4465;50.904;4.696;2023-05-10T08:38:39;12.10;99.90
8858;DHT22;4465;50.904;4.696;2023-05-10T08:41:05;12.10;99.90
8858;DHT22;4465;50.904;4.696;2023-05-10T08:43:31;12.10;99.90
8858;DHT22;4465;50.904;4.696;2023-05-10T08:46:00;12.20;99.90
8858;DHT22;4465;50.904;4.696;2023-05-10T08:48:31;12.20;99.90
8858;DHT22;4465;50.904;4.696;2023-05-10T08:51:00;12.20;99.90
8858;DHT22;4465;50.904;4.696;2023-05-10T08:53:29;12.20;99.90
8858;DHT22;4465;50.904;4.696;2023-05-10T08:55:58;12.10;99.90
8858;DHT22;4465;50.904;4.696;2023-05-10T08:58:26;12.10;99.90
8858;DHT22;4465;50.904;4.696;2023-05-10T09:00:55;12.10;99.90
8858;DHT22;4465;50.904;4.696;2023-05-10T09:03:21;12.10;99.90
8858;DHT22;4465;50.904;4.696;2023-05-10T09:05:48;12.10;99.90
8858;DHT22;4465;50.904;4.696;2023-05-10T09:08:14;12.10;99.90
8858;DHT22;4465;50.904;4.696;2023-05-10T09:10:44;12.10;99.90
8858;DHT22;4465;50.904;4.696;2023-05-10T09:13:14;12.10;99.90
8858;DHT22;4465;50.904;4.696;2023-05-10T09:15:44;12.10;99.90
8858;DHT22;4465;50.904;4.696;2023-05-10T09:18:10;12.10;99.90
8858;DHT22;4465;50.904;4.696;2023-05-10T09:20:38;12.10;99.90
8858;DHT22;4465;50.904;4.696;2023-05-10T09:23:04;12.20;99.90
8858;DHT22;4465;50.904;4.696;2023-05-10T09:25:33;12.20;99.90
8858;DHT22;4465;50.904;4.696;2023-05-10T09:28:00;12.20;99.90
8858;DHT22;4465;50.904;4.696;2023-05-10T09:30:28;12.30;99.90
8858;DHT22;4465;50.904;4.696;2023-05-10T09:32:58;12.30;99.90
8858;DHT22;4465;50.904;4.696;2023-05-10T09:35:26;12.30;99.90
8858;DHT22;4465;50.904;4.696;2023-05-10T09:37:54;12.30;99.90
8858;DHT22;4465;50.904;4.696;2023-05-10T09:40:23;12.30;99.90
8858;DHT22;4465;50.904;4.696;2023-05-10T09:42:55;12.30;99.90
8858;DHT22;4465;50.904;4.696;2023-05-10T09:45:29;12.30;99.90
8858;DHT22;4465;50.904;4.696;2023-05-10T09:47:56;12.30;99.90
8858;DHT22;4465;50.904;4.696;2023-05-10T09:50:28;12.40;99.90
8858;DHT22;4465;50.904;4.696;2023-05-10T09:52:59;12.40;99.90
8858;DHT22;4465;50.904;4.696;2023-05-10T09:58:10;12.50;99.90
8858;DHT22;4465;50.904;4.696;2023-05-10T10:00:38;12.50;99.90
8858;DHT22;4465;50.904;4.696;2023-05-10T10:03:05;12.60;99.90
8858;DHT22;4465;50.904;4.696;2023-05-10T10:05:35;12.60;99.90
8858;DHT22;4465;50.904;4.696;2023-05-10T10:08:05;12.60;99.90
8858;DHT22;4465;50.904;4.696;2023-05-10T10:10:32;12.60;99.90
8858;DHT22;4465;50.904;4.696;2023-05-10T10:13:01;12.60;99.90
8858;DHT22;4465;50.904;4.696;2023-05-10T10:15:27;12.60;99.90
8858;DHT22;4465;50.904;4.696;2023-05-10T10:17:54;12.70;99.90
8858;DHT22;4465;50.904;4.696;2023-05-10T10:20:23;12.70;99.90
8858;DHT22;4465;50.904;4.696;2023-05-10T10:22:49;12.70;99.90
8858;DHT22;4465;50.904;4.696;2023-05-10T10:25:17;12.80;99.90
8858;DHT22;4465;50.904;4.696;2023-05-10T10:30:42;12.80;99.90
8858;DHT22;4465;50.904;4.696;2023-05-10T10:36:02;12.80;99.90
8858;DHT22;4465;50.904;4.696;2023-05-10T10:38:57;12.80;99.90
8858;DHT22;4465;50.904;4.696;2023-05-10T10:41:35;12.80;99.90
8858;DHT22;4465;50.904;4.696;2023-05-10T10:52:36;12.90;99.90
8858;DHT22;4465;50.904;4.696;2023-05-10T10:55:18;12.90;99.90
8858;DHT22;4465;50.904;4.696;2023-05-10T10:57:54;13.00;99.90
8858;DHT22;4465;50.904;4.696;2023-05-10T11:00:33;13.00;99.90
8858;DHT22;4465;50.904;4.696;2023-05-10T11:03:08;13.00;99.90
8858;DHT22;4465;50.904;4.696;2023-05-10T11:05:45;13.10;99.90
8858;DHT22;4465;50.904;4.696;2023-05-10T11:08:29;13.10;99.90
8858;DHT22;4465;50.904;4.696;2023-05-10T11:11:06;13.20;99.90
8858;DHT22;4465;50.904;4.696;2023-05-10T11:16:15;13.40;99.90
8858;DHT22;4465;50.904;4.696;2023-05-10T11:18:53;13.50;99.90
8858;DHT22;4465;50.904;4.696;2023-05-10T11:21:19;13.60;99.90
8858;DHT22;4465;50.904;4.696;2023-05-10T11:23:50;13.70;99.90
8858;DHT22;4465;50.904;4.696;2023-05-10T11:26:25;13.80;99.90
8858;DHT22;4465;50.904;4.696;2023-05-10T11:28:53;13.90;99.90
8858;DHT22;4465;50.904;4.696;2023-05-10T11:31:24;14.00;99.90
8858;DHT22;4465;50.904;4.696;2023-05-10T11:33:57;14.10;99.90
8858;DHT22;4465;50.904;4.696;2023-05-10T11:36:29;14.20;99.90
8858;DHT22;4465;50.904;4.696;2023-05-10T11:38:56;14.30;99.90
8858;DHT22;4465;50.904;4.696;2023-05-10T11:41:23;14.30;99.90
8858;DHT22;4465;50.904;4.696;2023-05-10T11:43:51;14.30;99.90
8858;DHT22;4465;50.904;4.696;2023-05-10T11:46:19;14.30;99.90
8858;DHT22;4465;50.904;4.696;2023-05-10T11:48:48;14.40;99.90
8858;DHT22;4465;50.904;4.696;2023-05-10T11:51:15;14.40;99.90
8858;DHT22;4465;50.904;4.696;2023-05-10T11:53:41;14.50;99.90
8858;DHT22;4465;50.904;4.696;2023-05-10T11:56:08;14.50;99.90
8858;DHT22;4465;50.904;4.696;2023-05-10T11:58:36;14.50;99.90
8858;DHT22;4465;50.904;4.696;2023-05-10T12:01:02;14.50;99.90
8858;DHT22;4465;50.904;4.696;2023-05-10T12:03:32;14.50;99.90
8858;DHT22;4465;50.904;4.696;2023-05-10T12:05:58;14.40;99.90
8858;DHT22;4465;50.904;4.696;2023-05-10T12:08:26;14.40;99.90
8858;DHT22;4465;50.904;4.696;2023-05-10T12:11:03;14.40;99.90
8858;DHT22;4465;50.904;4.696;2023-05-10T12:13:31;14.40;99.90
8858;DHT22;4465;50.904;4.696;2023-05-10T12:15:58;14.40;99.90
8858;DHT22;4465;50.904;4.696;2023-05-10T12:18:24;14.40;99.90
8858;DHT22;4465;50.904;4.696;2023-05-10T12:20:54;14.50;99.90
8858;DHT22;4465;50.904;4.696;2023-05-10T12:23:20;14.50;99.90
8858;DHT22;4465;50.904;4.696;2023-05-10T12:25:46;14.50;99.90
8858;DHT22;4465;50.904;4.696;2023-05-10T12:28:19;14.60;99.90
8858;DHT22;4465;50.904;4.696;2023-05-10T12:30:45;14.60;99.90
8858;DHT22;4465;50.904;4.696;2023-05-10T12:33:13;14.60;99.90
8858;DHT22;4465;50.904;4.696;2023-05-10T12:35:51;14.70;99.90
8858;DHT22;4465;50.904;4.696;2023-05-10T12:38:34;14.70;99.90
8858;DHT22;4465;50.904;4.696;2023-05-10T12:41:02;14.80;99.90
8858;DHT22;4465;50.904;4.696;2023-05-10T12:43:28;14.80;99.90
8858;DHT22;4465;50.904;4.696;2023-05-10T12:45:54;14.80;99.90
8858;DHT22;4465;50.904;4.696;2023-05-10T12:48:21;14.80;99.90
8858;DHT22;4465;50.904;4.696;2023-05-10T12:50:47;14.90;99.90
8858;DHT22;4465;50.904;4.696;2023-05-10T12:53:15;14.90;99.90
8858;DHT22;4465;50.904;4.696;2023-05-10T12:55:44;15.00;99.90
8858;DHT22;4465;50.904;4.696;2023-05-10T12:58:13;15.00;99.90
8858;DHT22;4465;50.904;4.696;2023-05-10T13:00:39;15.00;99.90
8858;DHT22;4465;50.904;4.696;2023-05-10T13:03:05;15.00;99.90
8858;DHT22;4465;50.904;4.696;2023-05-10T13:05:34;15.00;99.90
8858;DHT22;4465;50.904;4.696;2023-05-10T13:08:02;15.00;99.90
8858;DHT22;4465;50.904;4.696;2023-05-10T13:10:30;15.00;99.90
8858;DHT22;4465;50.904;4.696;2023-05-10T13:12:57;15.00;99.90
8858;DHT22;4465;50.904;4.696;2023-05-10T13:15:26;15.00;99.90
8858;DHT22;4465;50.904;4.696;2023-05-10T13:17:55;14.90;99.90
8858;DHT22;4465;50.904;4.696;2023-05-10T13:20:23;14.90;99.90
8858;DHT22;4465;50.904;4.696;2023-05-10T13:22:49;15.00;99.90
8858;DHT22;4465;50.904;4.696;2023-05-10T13:25:15;15.00;99.90
8858;DHT22;4465;50.904;4.696;2023-05-10T13:27:44;15.00;99.90
8858;DHT22;4465;50.904;4.696;2023-05-10T13:30:12;15.00;99.90
8858;DHT22;4465;50.904;4.696;2023-05-10T13:32:38;15.00;99.90
8858;DHT22;4465;50.904;4.696;2023-05-10T13:35:07;15.10;99.90
8858;DHT22;4465;50.904;4.696;2023-05-10T13:37:33;15.10;99.90
8858;DHT22;4465;50.904;4.696;2023-05-10T13:40:05;15.10;99.90
8858;DHT22;4465;50.904;4.696;2023-05-10T13:42:31;15.10;99.90
8858;DHT22;4465;50.904;4.696;2023-05-10T13:44:59;15.10;99.90
8858;DHT22;4465;50.904;4.696;2023-05-10T13:47:26;15.10;99.90
8858;DHT22;4465;50.904;4.696;2023-05-10T13:49:52;15.10;99.90
8858;DHT22;4465;50.904;4.696;2023-05-10T13:52:19;15.10;99.90
8858;DHT22;4465;50.904;4.696;2023-05-10T13:54:47;15.10;99.90
8858;DHT22;4465;50.904;4.696;2023-05-10T13:57:16;15.10;99.90
8858;DHT22;4465;50.904;4.696;2023-05-10T13:59:44;15.10;99.90
8858;DHT22;4465;50.904;4.696;2023-05-10T14:02:13;15.10;99.90
8858;DHT22;4465;50.904;4.696;2023-05-10T14:04:39;15.10;99.90
8858;DHT22;4465;50.904;4.696;2023-05-10T14:07:07;15.10;99.90
8858;DHT22;4465;50.904;4.696;2023-05-10T14:09:36;15.10;99.90
8858;DHT22;4465;50.904;4.696;2023-05-10T14:12:02;15.00;99.90
8858;DHT22;4465;50.904;4.696;2023-05-10T14:14:28;15.00;99.90
8858;DHT22;4465;50.904;4.696;2023-05-10T14:16:55;15.10;99.90
8858;DHT22;4465;50.904;4.696;2023-05-10T14:19:21;15.10;99.90
8858;DHT22;4465;50.904;4.696;2023-05-10T14:21:47;15.10;99.90
8858;DHT22;4465;50.904;4.696;2023-05-10T14:24:15;15.10;99.90
8858;DHT22;4465;50.904;4.696;2023-05-10T14:26:43;15.10;99.90
8858;DHT22;4465;50.904;4.696;2023-05-10T14:29:09;15.10;99.90
8858;DHT22;4465;50.904;4.696;2023-05-10T14:31:35;15.20;99.90
8858;DHT22;4465;50.904;4.696;2023-05-10T14:34:01;15.30;99.90
8858;DHT22;4465;50.904;4.696;2023-05-10T14:36:29;15.30;99.90
8858;DHT22;4465;50.904;4.696;2023-05-10T14:38:55;15.30;99.90
8858;DHT22;4465;50.904;4.696;2023-05-10T14:41:23;15.40;99.90
8858;DHT22;4465;50.904;4.696;2023-05-10T14:43:50;15.40;99.90
8858;DHT22;4465;50.904;4.696;2023-05-10T14:46:18;15.40;99.90
8858;DHT22;4465;50.904;4.696;2023-05-10T14:48:44;15.40;99.90
8858;DHT22;4465;50.904;4.696;2023-05-10T14:51:10;15.40;99.90
8858;DHT22;4465;50.904;4.696;2023-05-10T14:53:39;15.40;99.90
8858;DHT22;4465;50.904;4.696;2023-05-10T14:56:05;15.40;99.90
8858;DHT22;4465;50.904;4.696;2023-05-10T14:58:31;15.40;99.90
8858;DHT22;4465;50.904;4.696;2023-05-10T15:00:57;15.50;99.90
8858;DHT22;4465;50.904;4.696;2023-05-10T15:03:22;15.50;99.90
8858;DHT22;4465;50.904;4.696;2023-05-10T15:05:48;15.40;99.90
8858;DHT22;4465;50.904;4.696;2023-05-10T15:08:14;15.50;99.90
8858;DHT22;4465;50.904;4.696;2023-05-10T15:10:42;15.40;99.90
8858;DHT22;4465;50.904;4.696;2023-05-10T15:13:10;15.50;99.90
8858;DHT22;4465;50.904;4.696;2023-05-10T15:15:36;15.40;99.90
8858;DHT22;4465;50.904;4.696;2023-05-10T15:18:02;15.50;99.90
8858;DHT22;4465;50.904;4.696;2023-05-10T15:20:28;15.50;99.90
8858;DHT22;4465;50.904;4.696;2023-05-10T15:22:54;15.50;99.90
8858;DHT22;4465;50.904;4.696;2023-05-10T15:25:20;15.50;99.90
8858;DHT22;4465;50.904;4.696;2023-05-10T15:27:46;15.40;99.90
8858;DHT22;4465;50.904;4.696;2023-05-10T15:30:14;15.40;99.90
8858;DHT22;4465;50.904;4.696;2023-05-10T15:32:40;15.40;99.90
8858;DHT22;4465;50.904;4.696;2023-05-10T15:35:09;15.40;99.90
8858;DHT22;4465;50.904;4.696;2023-05-10T15:37:38;15.40;99.90
8858;DHT22;4465;50.904;4.696;2023-05-10T15:40:04;15.30;99.90
8858;DHT22;4465;50.904;4.696;2023-05-10T15:42:30;15.30;99.90
8858;DHT22;4465;50.904;4.696;2023-05-10T15:44:57;15.30;99.90
8858;DHT22;4465;50.904;4.696;2023-05-10T15:47:24;15.30;99.90
8858;DHT22;4465;50.904;4.696;2023-05-10T15:49:53;15.20;99.90
8858;DHT22;4465;50.904;4.696;2023-05-10T15:52:19;15.10;99.90
8858;DHT22;4465;50.904;4.696;2023-05-10T15:54:46;15.00;99.90
8858;DHT22;4465;50.904;4.696;2023-05-10T15:57:14;14.80;99.90
8858;DHT22;4465;50.904;4.696;2023-05-10T15:59:40;14.70;99.90
8858;DHT22;4465;50.904;4.696;2023-05-10T16:02:09;14.50;99.90
8858;DHT22;4465;50.904;4.696;2023-05-10T16:04:35;14.40;99.90
8858;DHT22;4465;50.904;4.696;2023-05-10T16:07:02;14.30;99.90
8858;DHT22;4465;50.904;4.696;2023-05-10T16:09:28;14.30;99.90
8858;DHT22;4465;50.904;4.696;2023-05-10T16:11:54;14.20;99.90
8858;DHT22;4465;50.904;4.696;2023-05-10T16:14:21;14.20;99.90
8858;DHT22;4465;50.904;4.696;2023-05-10T16:16:49;14.10;99.90
8858;DHT22;4465;50.904;4.696;2023-05-10T16:19:15;14.00;99.90
8858;DHT22;4465;50.904;4.696;2023-05-10T16:21:41;14.00;99.90
8858;DHT22;4465;50.904;4.696;2023-05-10T16:24:06;13.90;99.90
8858;DHT22;4465;50.904;4.696;2023-05-10T16:26:32;13.80;99.90
8858;DHT22;4465;50.904;4.696;2023-05-10T16:29:09;13.80;99.90
8858;DHT22;4465;50.904;4.696;2023-05-10T16:31:35;13.70;99.90
8858;DHT22;4465;50.904;4.696;2023-05-10T16:34:01;13.70;99.90
8858;DHT22;4465;50.904;4.696;2023-05-10T16:36:28;13.60;99.90
8858;DHT22;4465;50.904;4.696;2023-05-10T16:38:54;13.60;99.90
8858;DHT22;4465;50.904;4.696;2023-05-10T16:41:22;13.50;99.90
8858;DHT22;4465;50.904;4.696;2023-05-10T16:43:48;13.50;99.90
8858;DHT22;4465;50.904;4.696;2023-05-10T16:46:14;13.50;99.90
8858;DHT22;4465;50.904;4.696;2023-05-10T16:48:42;13.40;99.90